Time;durP1;ratioP1;P1;durP2;ratioP2;P2;SDS_P1;SDS_P2;PMS_P1;PMS_P2;Temp;Humidity;BMP_temperature;BMP_pressure;BME280_temperature;BME280_humidity;BME280_pressure;Samples;Min_cycle;Max_cycle;Signal;HPM_P1;HPM_P2
2021/08/08 00:01:51;;;;;;;2.27;2.07;;;;;;;12.64;100.00;97387.84;5056319;28;20614;-73
2021/08/08 00:04:19;;;;;;;2.37;2.10;;;;;;;12.57;100.00;97390.44;5050606;28;20246;-73
2021/08/08 00:06:47;;;;;;;2.77;1.87;;;;;;;12.57;100.00;97390.44;5041781;28;20217;-71
2021/08/08 00:09:15;;;;;;;3.53;3.20;;;;;;;12.66;100.00;97397.25;5051848;28;20238;-70
2021/08/08 00:11:43;;;;;;;4.17;2.30;;;;;;;12.72;100.00;97403.66;5050404;28;20204;-72
2021/08/08 00:14:13;;;;;;;2.00;1.90;;;;;;;12.65;100.00;97402.78;5050279;28;20215;-73
2021/08/08 00:16:41;;;;;;;3.30;3.00;;;;;;;12.67;100.00;97404.22;5058385;28;20229;-72
2021/08/08 00:19:09;;;;;;;2.40;2.20;;;;;;;12.65;100.00;97398.28;5052866;28;20230;-72
2021/08/08 00:21:37;;;;;;;2.20;1.97;;;;;;;12.68;100.00;97399.72;5053144;28;20595;-73
2021/08/08 00:24:05;;;;;;;4.53;2.17;;;;;;;12.63;100.00;97394.97;5054570;28;20218;-72
2021/08/08 00:26:34;;;;;;;6.00;2.77;;;;;;;12.68;100.00;97403.19;5049307;28;20238;-70
2021/08/08 00:29:02;;;;;;;3.93;2.30;;;;;;;12.60;100.00;97408.66;5047781;28;20606;-73
2021/08/08 00:31:31;;;;;;;2.43;1.90;;;;;;;12.65;100.00;97406.25;5060694;28;20210;-73
2021/08/08 00:33:59;;;;;;;2.00;1.90;;;;;;;12.64;100.00;97411.78;5051335;28;20203;-72
2021/08/08 00:36:27;;;;;;;3.83;2.20;;;;;;;12.60;100.00;97413.97;5058393;28;20202;-72
2021/08/08 00:38:56;;;;;;;4.40;2.50;;;;;;;12.50;100.00;97402.84;5050425;28;20237;-73
2021/08/08 00:41:24;;;;;;;3.77;2.50;;;;;;;12.45;100.00;97414.03;5052361;28;20199;-72
2021/08/08 00:43:52;;;;;;;2.30;1.97;;;;;;;12.41;100.00;97410.13;5055280;28;20209;-71
2021/08/08 00:46:20;;;;;;;4.33;2.27;;;;;;;12.35;100.00;97409.06;5045328;28;20700;-71
2021/08/08 00:48:50;;;;;;;5.03;2.27;;;;;;;12.38;100.00;97416.66;5056238;28;20253;-72
2021/08/08 00:51:18;;;;;;;5.07;2.90;;;;;;;12.42;100.00;97422.41;5050844;28;20690;-73
2021/08/08 00:53:46;;;;;;;4.43;2.33;;;;;;;12.41;100.00;97413.63;5054157;28;20209;-73
2021/08/08 00:56:16;;;;;;;2.90;2.30;;;;;;;12.43;100.00;97408.09;5058686;28;20219;-72
2021/08/08 00:58:44;;;;;;;2.43;2.23;;;;;;;12.42;100.00;97409.94;5055162;28;20230;-73
2021/08/08 01:01:14;;;;;;;5.53;2.47;;;;;;;12.45;100.00;97412.22;5051559;28;20390;-73
2021/08/08 01:03:44;;;;;;;3.67;3.00;;;;;;;12.56;100.00;97423.34;5052448;28;20317;-72
2021/08/08 01:06:16;;;;;;;3.10;2.50;;;;;;;12.52;100.00;97422.09;5050799;28;20217;-73
2021/08/08 01:08:48;;;;;;;3.20;2.97;;;;;;;12.56;100.00;97424.19;5059184;28;20637;-73
2021/08/08 01:11:17;;;;;;;2.50;2.30;;;;;;;12.50;100.00;97418.81;5051466;28;20218;-73
2021/08/08 01:13:46;;;;;;;2.60;2.50;;;;;;;12.43;100.00;97406.28;5047889;28;20208;-72
2021/08/08 01:16:15;;;;;;;3.20;2.90;;;;;;;12.38;100.00;97405.19;5057745;28;20200;-72
2021/08/08 01:18:45;;;;;;;3.63;2.40;;;;;;;12.36;100.00;97418.69;5053106;28;20230;-71
2021/08/08 01:21:15;;;;;;;2.90;2.30;;;;;;;12.24;100.00;97423.66;5048899;28;20238;-72
2021/08/08 01:23:43;;;;;;;2.43;2.20;;;;;;;12.24;100.00;97430.81;5058319;28;20206;-72
2021/08/08 01:26:13;;;;;;;5.13;2.83;;;;;;;12.24;100.00;97436.94;5049631;28;20207;-72
2021/08/08 01:28:40;;;;;;;3.20;3.00;;;;;;;12.18;100.00;97435.06;5061027;28;20329;-72
2021/08/08 01:31:08;;;;;;;2.90;2.70;;;;;;;12.14;100.00;97439.91;5049731;28;20206;-73
2021/08/08 01:33:36;;;;;;;2.70;2.60;;;;;;;12.09;100.00;97441.47;5053030;28;20286;-73
2021/08/08 01:36:06;;;;;;;3.00;2.80;;;;;;;12.08;100.00;97440.66;5056115;28;20203;-72
2021/08/08 01:38:34;;;;;;;5.87;3.03;;;;;;;12.04;100.00;97442.03;5047208;28;20231;-72
2021/08/08 01:41:03;;;;;;;3.30;3.10;;;;;;;11.99;100.00;97444.41;5050921;28;21027;-71
2021/08/08 01:43:33;;;;;;;5.87;2.73;;;;;;;11.90;100.00;97435.72;5057414;28;20207;-72
2021/08/08 01:46:05;;;;;;;2.67;2.47;;;;;;;11.86;100.00;97443.22;5052350;28;20280;-73
2021/08/08 01:48:36;;;;;;;2.57;2.37;;;;;;;11.84;100.00;97433.81;5055684;28;20348;-73
2021/08/08 01:51:04;;;;;;;9.03;3.27;;;;;;;11.78;100.00;97426.59;5044292;28;20691;-71
2021/08/08 01:53:33;;;;;;;3.90;2.60;;;;;;;11.71;100.00;97440.59;5052501;28;20767;-72
2021/08/08 01:56:02;;;;;;;3.23;3.03;;;;;;;11.68;100.00;97440.16;5053122;28;20210;-72
2021/08/08 01:58:30;;;;;;;3.37;2.60;;;;;;;11.67;100.00;97438.50;5054127;28;20595;-72
2021/08/08 02:00:59;;;;;;;4.03;3.30;;;;;;;11.66;100.00;97444.81;5046518;28;20214;-72
2021/08/08 02:03:33;;;;;;;5.07;2.90;;;;;;;11.75;100.00;97451.66;5054831;28;20438;-72
2021/08/08 02:06:01;;;;;;;4.50;3.43;;;;;;;11.70;100.00;97451.41;5054581;28;20827;-70
2021/08/08 02:08:30;;;;;;;3.60;3.30;;;;;;;11.69;100.00;97453.22;5067438;28;20223;-74
2021/08/08 02:10:58;;;;;;;3.80;3.13;;;;;;;11.71;100.00;97459.16;5058004;28;20747;-73
2021/08/08 02:13:26;;;;;;;3.80;3.40;;;;;;;11.71;100.00;97461.81;5051023;28;20489;-73
2021/08/08 02:15:54;;;;;;;4.60;3.23;;;;;;;11.64;100.00;97468.06;5053210;28;20207;-73
2021/08/08 02:18:24;;;;;;;4.70;2.60;;;;;;;11.67;100.00;97471.16;5058788;28;20226;-72
2021/08/08 02:20:51;;;;;;;3.33;3.03;;;;;;;11.69;100.00;97474.47;5051971;28;20581;-72
2021/08/08 02:23:19;;;;;;;10.30;2.87;;;;;;;11.75;100.00;97480.88;5060120;28;20239;-72
2021/08/08 02:25:51;;;;;;;3.97;2.67;;;;;;;11.69;100.00;97481.63;5048061;28;20667;-72
2021/08/08 02:28:19;;;;;;;2.83;2.63;;;;;;;11.74;100.00;97489.84;5053647;28;20227;-73
2021/08/08 02:30:47;;;;;;;3.60;3.03;;;;;;;11.72;100.00;97499.81;5052197;28;20835;-73
2021/08/08 02:33:15;;;;;;;3.23;2.93;;;;;;;11.80;100.00;97489.09;5052625;28;20222;-73
2021/08/08 02:35:45;;;;;;;3.17;2.97;;;;;;;11.85;100.00;97493.88;5057159;28;20205;-72
2021/08/08 02:38:13;;;;;;;2.97;2.77;;;;;;;11.86;100.00;97492.84;5060567;28;20674;-72
2021/08/08 02:40:40;;;;;;;5.53;3.27;;;;;;;11.84;100.00;97494.88;5055643;28;20804;-73
2021/08/08 02:43:08;;;;;;;4.47;2.80;;;;;;;11.91;100.00;97500.25;5054619;28;20203;-73
2021/08/08 02:45:36;;;;;;;2.93;2.70;;;;;;;11.83;100.00;97504.66;5055910;28;20218;-72
2021/08/08 02:48:05;;;;;;;3.23;2.80;;;;;;;11.91;100.00;97502.91;5057728;28;20249;-73
2021/08/08 02:50:33;;;;;;;2.53;2.33;;;;;;;11.92;100.00;97507.22;5059825;28;20208;-72
2021/08/08 02:53:03;;;;;;;3.00;2.40;;;;;;;11.87;100.00;97516.56;5056812;28;20445;-72
2021/08/08 02:55:31;;;;;;;2.53;2.43;;;;;;;11.89;100.00;97513.72;5052682;28;20207;-73
2021/08/08 02:57:59;;;;;;;3.43;2.60;;;;;;;11.90;100.00;97514.53;5059075;28;20224;-73
2021/08/08 03:00:26;;;;;;;2.93;2.60;;;;;;;11.95;100.00;97517.50;5057972;28;20278;-72
2021/08/08 03:02:54;;;;;;;3.27;2.70;;;;;;;12.00;100.00;97520.41;5053959;28;20214;-73
2021/08/08 03:05:23;;;;;;;2.60;2.50;;;;;;;12.06;100.00;97525.00;5054920;28;20569;-72
2021/08/08 03:07:50;;;;;;;8.57;2.83;;;;;;;12.01;100.00;97525.56;5058640;28;20450;-73
2021/08/08 03:10:20;;;;;;;17.47;3.57;;;;;;;12.07;100.00;97534.63;5052078;28;21201;-73
2021/08/08 03:12:49;;;;;;;4.03;2.77;;;;;;;11.99;100.00;97540.00;5056308;28;20198;-74
2021/08/08 03:15:16;;;;;;;3.70;2.40;;;;;;;11.97;100.00;97534.06;5049554;28;20459;-72
2021/08/08 03:17:45;;;;;;;3.90;2.63;;;;;;;12.03;100.00;97538.66;5058089;28;20227;-72
2021/08/08 03:20:13;;;;;;;2.90;2.70;;;;;;;11.99;100.00;97551.44;5050007;28;20223;-71
2021/08/08 03:22:41;;;;;;;7.50;3.00;;;;;;;12.02;100.00;97547.63;5060286;28;20206;-73
2021/08/08 03:25:10;;;;;;;3.03;2.67;;;;;;;12.10;100.00;97542.22;5054855;28;20265;-71
2021/08/08 03:27:39;;;;;;;2.57;2.40;;;;;;;12.08;100.00;97546.06;5055531;28;20231;-73
2021/08/08 03:30:08;;;;;;;2.83;2.43;;;;;;;12.14;100.00;97548.81;5059574;28;20397;-73
2021/08/08 03:32:37;;;;;;;2.97;2.80;;;;;;;12.01;100.00;97552.09;5054777;28;20207;-73
2021/08/08 03:35:07;;;;;;;3.10;2.57;;;;;;;11.98;100.00;97543.69;5056182;28;20306;-73
2021/08/08 03:37:35;;;;;;;5.43;2.60;;;;;;;11.94;100.00;97551.16;5056239;28;20222;-73
2021/08/08 03:40:03;;;;;;;4.73;2.60;;;;;;;11.91;100.00;97564.81;5056911;28;20266;-72
2021/08/08 03:42:31;;;;;;;2.90;2.70;;;;;;;11.84;100.00;97570.03;5051809;28;20200;-73
2021/08/08 03:45:00;;;;;;;3.23;2.53;;;;;;;11.81;100.00;97567.72;5056117;28;20299;-74
2021/08/08 03:47:28;;;;;;;3.50;2.60;;;;;;;11.81;100.00;97572.25;5050833;28;20200;-73
2021/08/08 03:49:56;;;;;;;7.63;2.50;;;;;;;11.78;100.00;97573.41;5051747;28;20199;-73
2021/08/08 03:52:24;;;;;;;5.57;2.70;;;;;;;11.75;100.00;97581.75;5057508;28;20580;-72
2021/08/08 03:54:52;;;;;;;3.37;2.37;;;;;;;11.73;100.00;97578.44;5045352;28;20207;-73
2021/08/08 03:57:20;;;;;;;2.53;2.23;;;;;;;11.78;100.00;97584.03;5060644;28;20203;-72
2021/08/08 03:59:48;;;;;;;3.50;2.80;;;;;;;11.84;100.00;97585.16;5055819;28;20235;-73
2021/08/08 04:02:17;;;;;;;3.13;2.60;;;;;;;11.92;100.00;97597.50;5055171;28;20210;-73
2021/08/08 04:04:46;;;;;;;2.40;2.30;;;;;;;11.85;100.00;97590.25;5052068;28;20209;-73
2021/08/08 04:07:14;;;;;;;6.80;2.80;;;;;;;11.99;100.00;97585.97;5058986;28;20225;-72
2021/08/08 04:09:42;;;;;;;7.60;2.87;;;;;;;11.98;100.00;97589.63;5058602;28;20315;-72
2021/08/08 04:12:10;;;;;;;3.10;2.70;;;;;;;12.02;100.00;97590.13;5055491;28;20196;-73
2021/08/08 04:14:38;;;;;;;2.47;2.27;;;;;;;12.00;100.00;97584.16;5053432;28;20507;-72
2021/08/08 04:17:06;;;;;;;3.30;2.63;;;;;;;11.97;100.00;97584.50;5056239;28;20263;-73
2021/08/08 04:19:36;;;;;;;4.63;2.93;;;;;;;11.92;100.00;97587.72;5049375;28;20234;-73
2021/08/08 04:22:04;;;;;;;4.57;2.60;;;;;;;11.98;100.00;97589.63;5058807;28;20217;-73
2021/08/08 04:24:32;;;;;;;2.70;2.50;;;;;;;11.94;100.00;97603.47;5047958;28;20214;-73
2021/08/08 04:27:00;;;;;;;4.63;3.00;;;;;;;11.98;100.00;97613.53;5053642;28;20210;-72
2021/08/08 04:29:28;;;;;;;4.17;3.13;;;;;;;11.97;100.00;97616.38;5050647;28;20265;-73
2021/08/08 04:31:56;;;;;;;3.60;3.00;;;;;;;11.97;100.00;97616.38;5054965;28;20424;-72
2021/08/08 04:34:24;;;;;;;3.90;2.80;;;;;;;11.95;100.00;97621.06;5053248;28;20203;-73
2021/08/08 04:36:54;;;;;;;4.63;3.03;;;;;;;11.95;100.00;97623.72;5053973;28;20211;-73
2021/08/08 04:39:22;;;;;;;3.03;2.83;;;;;;;11.98;100.00;97620.69;5053074;28;20227;-71
2021/08/08 04:41:51;;;;;;;3.50;2.97;;;;;;;12.00;100.00;97623.97;5054744;28;20598;-72
2021/08/08 04:44:19;;;;;;;3.00;2.70;;;;;;;12.02;100.00;97630.78;5051720;28;20216;-72
2021/08/08 04:46:48;;;;;;;3.27;2.97;;;;;;;12.02;100.00;97632.63;5053099;28;20674;-73
2021/08/08 04:49:16;;;;;;;3.67;3.30;;;;;;;12.02;100.00;97630.78;5051816;28;20226;-73
2021/08/08 04:51:44;;;;;;;4.43;2.70;;;;;;;12.13;100.00;97634.81;5057203;28;20198;-73
2021/08/08 04:54:13;;;;;;;3.07;2.83;;;;;;;12.08;100.00;97639.84;5048162;28;20370;-73
2021/08/08 04:56:41;;;;;;;5.23;2.63;;;;;;;12.06;100.00;97641.03;5057555;28;20205;-73
2021/08/08 04:59:09;;;;;;;5.57;3.10;;;;;;;12.11;100.00;97647.44;5054843;28;20490;-73
2021/08/08 05:01:39;;;;;;;2.90;2.60;;;;;;;12.24;100.00;97646.81;5058442;28;20229;-73
2021/08/08 05:04:07;;;;;;;6.67;3.27;;;;;;;12.28;100.00;97641.94;5049946;28;20215;-73
2021/08/08 05:06:35;;;;;;;3.10;2.90;;;;;;;12.34;100.00;97649.22;5050963;28;20212;-71
2021/08/08 05:09:04;;;;;;;3.70;3.27;;;;;;;12.45;100.00;97653.22;5055247;28;20238;-73
2021/08/08 05:11:33;;;;;;;4.87;3.47;;;;;;;12.49;100.00;97651.03;5055476;28;20207;-72
2021/08/08 05:14:02;;;;;;;5.73;3.20;;;;;;;12.57;100.00;97653.56;5049807;28;20663;-72
2021/08/08 05:16:30;;;;;;;5.20;3.30;;;;;;;12.63;100.00;97642.19;5050162;28;20680;-73
2021/08/08 05:18:58;;;;;;;2.77;2.57;;;;;;;12.70;100.00;97644.94;5052934;28;20736;-73
2021/08/08 05:21:26;;;;;;;3.30;3.00;;;;;;;12.70;100.00;97648.44;5050480;28;20219;-73
2021/08/08 05:23:54;;;;;;;3.40;3.13;;;;;;;12.74;100.00;97657.69;5057813;28;20214;-71
2021/08/08 05:26:22;;;;;;;2.90;2.70;;;;;;;12.91;100.00;97657.47;5053356;28;20221;-72
2021/08/08 05:28:51;;;;;;;3.20;2.90;;;;;;;12.93;100.00;97654.63;5051572;28;20230;-73
2021/08/08 05:31:19;;;;;;;3.27;2.93;;;;;;;12.91;100.00;97660.13;5054086;28;20199;-73
2021/08/08 05:33:47;;;;;;;4.10;2.63;;;;;;;12.86;100.00;97658.00;5047980;28;20627;-73
2021/08/08 05:36:15;;;;;;;5.43;2.80;;;;;;;12.94;100.00;97667.72;5052188;28;20199;-73
2021/08/08 05:38:43;;;;;;;3.07;2.60;;;;;;;12.97;100.00;97669.19;5052228;28;20719;-72
2021/08/08 05:41:12;;;;;;;5.93;2.83;;;;;;;13.06;100.00;97673.38;5050989;28;20220;-72
2021/08/08 05:43:40;;;;;;;3.10;2.80;;;;;;;13.24;100.00;97678.28;5051060;28;20680;-72
2021/08/08 05:46:09;;;;;;;2.93;2.73;;;;;;;13.31;100.00;97673.84;5060179;28;20219;-74
2021/08/08 05:48:37;;;;;;;3.83;2.27;;;;;;;13.31;100.00;97675.69;5056834;28;20273;-73
2021/08/08 05:51:05;;;;;;;2.93;2.73;;;;;;;13.40;100.00;97679.03;5051487;28;20332;-73
2021/08/08 05:53:53;;;;;;;2.73;2.53;;;;;;;13.54;100.00;97680.88;5047388;28;20257;-73
2021/08/08 05:56:21;;;;;;;9.23;7.03;;;;;;;13.56;100.00;97678.00;5050255;28;20277;-71
2021/08/08 05:58:49;;;;;;;4.33;2.17;;;;;;;13.62;100.00;97671.09;5052201;28;20222;-73
2021/08/08 06:01:18;;;;;;;2.47;2.37;;;;;;;13.69;100.00;97671.97;5049529;28;20230;-72
2021/08/08 06:03:46;;;;;;;4.13;2.37;;;;;;;13.80;100.00;97667.97;5049991;28;20206;-73
2021/08/08 06:06:14;;;;;;;4.27;2.33;;;;;;;13.82;100.00;97665.94;5052319;28;20698;-72
2021/08/08 06:08:42;;;;;;;2.10;2.00;;;;;;;13.87;100.00;97668.84;5052300;28;20846;-73
2021/08/08 06:11:11;;;;;;;4.80;2.00;;;;;;;14.01;100.00;97664.44;5051340;28;20207;-73
2021/08/08 06:13:39;;;;;;;2.17;1.97;;;;;;;13.94;100.00;97661.72;5051502;28;20204;-73
2021/08/08 06:16:07;;;;;;;10.30;3.03;;;;;;;14.03;100.00;97675.72;5047102;28;20475;-73
2021/08/08 06:18:36;;;;;;;2.20;2.10;;;;;;;14.18;100.00;97679.09;5052896;28;20297;-73
2021/08/08 06:21:04;;;;;;;3.60;2.50;;;;;;;14.27;100.00;97682.44;5049708;28;20241;-72
2021/08/08 06:23:32;;;;;;;2.33;2.13;;;;;;;14.48;100.00;97686.88;5056764;28;20687;-73
2021/08/08 06:26:00;;;;;;;2.00;1.90;;;;;;;14.55;100.00;97678.06;5052828;28;20764;-72
2021/08/08 06:28:28;;;;;;;3.37;2.00;;;;;;;14.68;100.00;97679.97;5052877;28;20223;-73
2021/08/08 06:30:56;;;;;;;3.13;1.80;;;;;;;14.75;100.00;97676.38;5050426;28;20309;-73
2021/08/08 06:33:24;;;;;;;5.67;1.97;;;;;;;14.75;100.00;97681.69;5050941;28;20239;-73
2021/08/08 06:35:54;;;;;;;3.70;1.90;;;;;;;14.89;100.00;97681.75;5053063;28;20652;-73
2021/08/08 06:38:22;;;;;;;5.53;2.23;;;;;;;15.02;100.00;97681.81;5053052;28;20229;-73
2021/08/08 06:40:50;;;;;;;3.30;1.97;;;;;;;15.07;100.00;97683.84;5051909;28;20259;-73
2021/08/08 06:43:18;;;;;;;2.23;2.03;;;;;;;15.18;100.00;97685.13;5049198;28;20200;-73
2021/08/08 06:45:46;;;;;;;3.13;2.00;;;;;;;15.27;100.00;97683.09;5053798;28;20332;-72
2021/08/08 06:48:14;;;;;;;1.90;1.80;;;;;;;15.31;100.00;97679.81;5052257;28;20230;-73
2021/08/08 06:50:42;;;;;;;2.70;2.23;;;;;;;15.39;100.00;97686.00;5054643;28;20667;-73
2021/08/08 06:53:15;;;;;;;3.50;2.03;;;;;;;15.51;100.00;97687.03;5051619;28;20203;-73
2021/08/08 06:55:43;;;;;;;12.37;2.30;;;;;;;15.53;100.00;97684.16;5052755;28;20214;-73
2021/08/08 06:58:11;;;;;;;1.70;1.60;;;;;;;15.49;100.00;97692.56;5058537;28;20235;-74
2021/08/08 07:00:39;;;;;;;2.47;1.53;;;;;;;15.55;100.00;97696.28;5057432;28;20210;-73
2021/08/08 07:03:11;;;;;;;3.20;1.83;;;;;;;15.74;100.00;97692.00;5049722;28;20204;-74
2021/08/08 07:05:39;;;;;;;1.50;1.50;;;;;;;15.88;100.00;97703.53;5061435;28;20210;-73
2021/08/08 07:08:07;;;;;;;2.30;1.97;;;;;;;15.83;100.00;97705.16;5052636;28;20227;-73
2021/08/08 07:10:36;;;;;;;2.77;1.77;;;;;;;15.96;100.00;97699.03;5057908;28;20730;-74
2021/08/08 07:13:04;;;;;;;1.47;1.37;;;;;;;16.12;100.00;97705.81;5053926;28;20211;-74
2021/08/08 07:15:32;;;;;;;1.63;1.53;;;;;;;16.08;100.00;97713.41;5052107;28;20294;-73
2021/08/08 07:18:00;;;;;;;1.87;1.53;;;;;;;16.13;100.00;97716.28;5055910;28;20349;-73
2021/08/08 07:20:28;;;;;;;1.37;1.27;;;;;;;16.37;100.00;97708.63;5048625;28;20355;-74
2021/08/08 07:22:56;;;;;;;5.23;1.97;;;;;;;16.46;100.00;97711.94;5058562;28;20241;-73
2021/08/08 07:25:25;;;;;;;1.57;1.47;;;;;;;16.27;100.00;97709.06;5051564;28;20482;-74
2021/08/08 07:27:54;;;;;;;2.57;1.50;;;;;;;16.32;100.00;97706.59;5053901;28;20230;-74
2021/08/08 07:30:22;;;;;;;1.57;1.20;;;;;;;16.56;100.00;97706.16;5046947;28;20208;-72
2021/08/08 07:32:50;;;;;;;2.07;1.77;;;;;;;16.68;100.00;97701.78;5053094;28;20200;-72
2021/08/08 07:35:19;;;;;;;1.93;1.20;;;;;;;16.66;100.00;97705.69;5052275;28;20841;-74
2021/08/08 07:37:47;;;;;;;2.50;1.30;;;;;;;16.70;100.00;97706.94;5053529;28;20228;-74
2021/08/08 07:40:15;;;;;;;1.10;1.10;;;;;;;16.67;100.00;97712.69;5055042;28;20668;-74
2021/08/08 07:42:48;;;;;;;1.37;1.30;;;;;;;16.75;100.00;97707.94;5052554;28;20227;-73
2021/08/08 07:45:18;;;;;;;2.20;1.70;;;;;;;17.04;100.00;97715.66;5052115;28;20426;-73
2021/08/08 07:47:46;;;;;;;2.77;1.60;;;;;;;16.88;100.00;97725.00;5048822;28;20552;-72
2021/08/08 07:50:14;;;;;;;5.53;1.30;;;;;;;16.95;100.00;97725.78;5055626;28;20219;-73
2021/08/08 07:52:42;;;;;;;4.87;1.53;;;;;;;16.90;100.00;97728.28;5054817;28;20209;-74
2021/08/08 07:55:11;;;;;;;1.90;1.27;;;;;;;17.09;100.00;97731.94;5054020;28;20509;-73
2021/08/08 07:57:39;;;;;;;3.10;1.13;;;;;;;17.16;100.00;97727.38;5056399;28;20234;-72
2021/08/08 08:00:09;;;;;;;1.50;1.40;;;;;;;17.34;100.00;97725.84;5049811;28;20221;-72
2021/08/08 08:02:38;;;;;;;2.03;1.20;;;;;;;17.61;100.00;97729.16;5060828;28;20592;-73
2021/08/08 08:05:07;;;;;;;1.40;1.30;;;;;;;17.74;100.00;97733.63;5046206;28;20230;-72
2021/08/08 08:07:36;;;;;;;2.40;1.30;;;;;;;17.87;100.00;97742.63;5062109;28;20235;-74
2021/08/08 08:10:05;;;;;;;1.00;1.00;;;;;;;17.71;96.82;97741.28;5056445;28;20207;-74
2021/08/08 08:12:34;;;;;;;2.10;1.57;;;;;;;17.29;95.89;97734.53;5051790;28;20198;-73
2021/08/08 08:15:02;;;;;;;2.83;1.37;;;;;;;17.14;96.90;97744.66;5056311;28;20720;-73
2021/08/08 08:17:30;;;;;;;2.10;1.10;;;;;;;16.88;94.98;97744.53;5055167;28;20752;-73
2021/08/08 08:19:59;;;;;;;1.53;1.43;;;;;;;16.67;97.34;97755.47;5052052;28;20203;-72
2021/08/08 08:22:27;;;;;;;1.30;1.20;;;;;;;16.47;97.29;97751.81;5058246;28;20227;-72
2021/08/08 08:24:55;;;;;;;1.93;1.30;;;;;;;16.58;100.00;97736.19;5054948;28;20246;-73
2021/08/08 08:27:23;;;;;;;1.87;1.60;;;;;;;16.70;96.61;97745.19;5057597;28;20207;-73
2021/08/08 08:29:51;;;;;;;1.40;1.30;;;;;;;16.98;95.71;97738.78;5053701;28;20215;-73
2021/08/08 08:32:19;;;;;;;1.93;1.40;;;;;;;17.18;94.34;97741.38;5054817;28;20199;-74
2021/08/08 08:34:47;;;;;;;2.53;1.90;;;;;;;16.92;90.97;97739.59;5054223;28;20292;-73
2021/08/08 08:37:19;;;;;;;1.93;1.50;;;;;;;17.00;91.85;97736.72;5051275;28;20204;-72
2021/08/08 08:39:47;;;;;;;1.63;1.40;;;;;;;17.32;92.00;97742.13;5053771;28;20194;-72
2021/08/08 08:42:15;;;;;;;2.07;1.10;;;;;;;17.45;87.53;97738.56;5047972;28;20646;-72
2021/08/08 08:44:43;;;;;;;2.33;1.50;;;;;;;17.61;87.41;97737.22;5052286;28;20279;-72
2021/08/08 08:47:14;;;;;;;3.80;1.73;;;;;;;17.83;89.00;97736.06;5050270;28;20211;-72
2021/08/08 08:49:46;;;;;;;4.23;1.20;;;;;;;17.96;87.58;97735.13;5062464;28;20210;-73
2021/08/08 08:52:14;;;;;;;2.00;1.20;;;;;;;18.02;86.56;97748.50;5051433;28;20286;-71
2021/08/08 08:54:43;;;;;;;1.50;1.40;;;;;;;17.89;84.14;97746.72;5053490;28;20244;-72
2021/08/08 08:57:12;;;;;;;1.77;1.30;;;;;;;18.14;86.57;97737.06;5044813;28;20724;-73
2021/08/08 08:59:40;;;;;;;1.23;1.20;;;;;;;18.34;85.83;97736.88;5056198;28;20229;-72
2021/08/08 09:02:08;;;;;;;1.53;1.40;;;;;;;18.57;82.35;97725.56;5052843;28;20237;-73
2021/08/08 09:04:36;;;;;;;2.57;1.50;;;;;;;18.87;81.76;97726.66;5054264;28;20215;-74
2021/08/08 09:07:05;;;;;;;1.50;1.40;;;;;;;18.83;77.91;97720.91;5053418;28;20214;-73
2021/08/08 09:09:34;;;;;;;3.13;1.67;;;;;;;18.74;77.01;97723.06;5048774;28;20229;-73
2021/08/08 09:12:04;;;;;;;1.53;1.43;;;;;;;18.69;76.63;97720.25;5054482;28;20290;-73
2021/08/08 09:14:33;;;;;;;4.17;1.13;;;;;;;18.98;77.51;97725.94;5057239;28;20992;-73
2021/08/08 09:17:01;;;;;;;2.90;1.30;;;;;;;19.15;75.66;97736.88;5054151;28;20417;-73
2021/08/08 09:19:31;;;;;;;1.47;1.37;;;;;;;19.47;76.84;97734.00;5052081;28;20227;-73
2021/08/08 09:21:59;;;;;;;2.93;1.30;;;;;;;19.58;74.71;97734.25;5061174;28;20215;-74
2021/08/08 09:24:29;;;;;;;3.90;1.80;;;;;;;19.53;71.38;97729.59;5060610;28;20207;-74
2021/08/08 09:27:02;;;;;;;2.40;1.33;;;;;;;19.59;70.04;97743.94;5049863;28;20257;-73
2021/08/08 09:29:32;;;;;;;1.50;1.03;;;;;;;19.49;71.11;97725.69;5056861;28;20229;-73
2021/08/08 09:32:01;;;;;;;2.23;1.37;;;;;;;19.19;69.86;97748.00;5050116;28;20202;-73
2021/08/08 09:34:31;;;;;;;1.40;1.27;;;;;;;19.46;71.66;97734.22;5057479;28;20203;-72
2021/08/08 09:37:01;;;;;;;0.80;0.80;;;;;;;19.84;73.03;97726.84;5054666;28;20221;-73
2021/08/08 09:39:31;;;;;;;2.40;1.10;;;;;;;19.98;70.00;97743.63;5053748;28;20227;-74
2021/08/08 09:42:07;;;;;;;1.33;1.23;;;;;;;19.46;67.61;97743.09;5054904;28;20206;-73
2021/08/08 09:44:37;;;;;;;1.57;1.47;;;;;;;19.31;72.72;97742.66;5048327;28;20211;-73
2021/08/08 09:47:06;;;;;;;1.60;1.50;;;;;;;18.94;71.33;97746.19;5051373;28;20207;-73
2021/08/08 09:49:34;;;;;;;1.37;1.27;;;;;;;18.80;76.75;97740.16;5055365;28;20764;-73
2021/08/08 09:52:02;;;;;;;3.17;1.00;;;;;;;18.63;72.11;97747.97;5052033;28;20256;-73
2021/08/08 09:54:36;;;;;;;1.87;1.50;;;;;;;18.42;72.78;97750.03;5055511;28;20204;-72
2021/08/08 09:57:05;;;;;;;1.60;1.37;;;;;;;18.50;71.50;97751.59;5050728;28;20604;-73
2021/08/08 09:59:34;;;;;;;1.43;1.13;;;;;;;19.00;73.04;97749.91;5053956;28;20227;-73
2021/08/08 10:02:04;;;;;;;3.90;1.50;;;;;;;19.23;73.00;97754.56;5052333;28;20297;-73
2021/08/08 10:04:34;;;;;;;1.90;1.40;;;;;;;19.12;70.78;97761.50;5052066;28;20206;-73
2021/08/08 10:07:04;;;;;;;3.43;1.40;;;;;;;19.53;73.43;97745.72;5050505;28;20203;-72
2021/08/08 10:09:32;;;;;;;1.47;1.37;;;;;;;19.79;70.35;97740.97;5052179;28;20249;-74
2021/08/08 10:12:10;;;;;;;1.67;1.43;;;;;;;19.98;69.24;97728.31;5057106;28;20254;-73
2021/08/08 10:14:38;;;;;;;1.27;1.17;;;;;;;20.09;67.29;97740.97;5057592;28;20206;-73
2021/08/08 10:17:09;;;;;;;1.53;1.10;;;;;;;20.17;65.21;97742.47;5056389;28;20283;-73
2021/08/08 10:19:37;;;;;;;1.77;1.30;;;;;;;20.44;66.97;97738.50;5049751;28;20223;-73
2021/08/08 10:22:06;;;;;;;1.43;1.40;;;;;;;20.95;66.44;97742.34;5055881;28;20212;-72
2021/08/08 10:24:34;;;;;;;1.17;1.13;;;;;;;21.14;62.41;97742.19;5057205;28;20699;-73
2021/08/08 10:27:02;;;;;;;1.40;1.30;;;;;;;21.13;61.13;97742.44;5053216;28;20215;-73
2021/08/08 10:29:31;;;;;;;1.07;1.07;;;;;;;21.23;60.14;97734.53;5057321;28;20220;-72
2021/08/08 10:31:59;;;;;;;2.40;1.20;;;;;;;21.59;61.38;97746.00;5045372;28;20215;-73
2021/08/08 10:34:32;;;;;;;1.50;1.20;;;;;;;21.57;58.02;97740.03;5055579;28;20207;-72
2021/08/08 10:37:11;;;;;;;1.77;1.40;;;;;;;21.91;57.41;97732.03;5054357;28;20446;-73
2021/08/08 10:39:41;;;;;;;1.53;1.10;;;;;;;22.12;55.60;97737.75;5054125;28;20223;-73
2021/08/08 10:42:09;;;;;;;2.40;1.20;;;;;;;22.04;56.69;97743.53;5049510;28;20207;-73
2021/08/08 10:44:47;;;;;;;0.97;0.97;;;;;;;21.71;53.85;97739.75;5052398;28;20229;-73
2021/08/08 10:47:26;;;;;;;0.80;0.80;;;;;;;21.88;52.35;97740.59;5057399;28;20207;-74
2021/08/08 10:49:55;;;;;;;1.00;1.00;;;;;;;22.02;51.12;97740.28;5056336;28;20237;-74
2021/08/08 10:52:23;;;;;;;1.57;1.47;;;;;;;22.43;51.50;97743.63;5057473;28;20504;-73
2021/08/08 10:54:53;;;;;;;1.80;0.87;;;;;;;22.62;49.11;97746.09;5058644;28;20198;-73
2021/08/08 10:57:21;;;;;;;0.90;0.90;;;;;;;22.15;51.31;97739.94;5046867;28;20553;-71
2021/08/08 10:59:51;;;;;;;1.20;1.10;;;;;;;22.49;52.78;97731.84;5053478;28;20678;-73
2021/08/08 11:02:26;;;;;;;1.43;1.00;;;;;;;22.30;52.56;97723.16;5058718;28;20207;-73
2021/08/08 11:04:56;;;;;;;1.10;1.10;;;;;;;22.45;50.93;97729.88;5050645;28;20232;-73
2021/08/08 11:07:26;;;;;;;1.30;1.20;;;;;;;22.82;51.50;97730.13;5058359;28;20283;-73
2021/08/08 11:09:55;;;;;;;1.57;1.00;;;;;;;23.03;49.74;97719.59;5059988;28;20210;-73
2021/08/08 11:12:32;;;;;;;1.30;1.20;;;;;;;22.76;52.38;97731.16;5056675;28;20212;-73
2021/08/08 11:15:00;;;;;;;2.13;1.20;;;;;;;22.30;52.67;97723.16;5055384;28;20207;-73
2021/08/08 11:17:28;;;;;;;0.90;0.87;;;;;;;22.31;52.40;97724.00;5053315;28;20230;-74
2021/08/08 11:19:58;;;;;;;2.37;1.30;;;;;;;21.90;54.98;97718.78;5053194;28;20210;-73
2021/08/08 11:22:28;;;;;;;0.80;0.80;;;;;;;22.00;53.57;97720.81;5056295;28;20579;-73
2021/08/08 11:24:58;;;;;;;1.10;1.00;;;;;;;22.31;52.94;97714.00;5055686;28;20227;-74
2021/08/08 11:27:31;;;;;;;2.10;1.10;;;;;;;22.63;52.56;97709.91;5056696;28;20218;-73
2021/08/08 11:29:59;;;;;;;1.70;1.30;;;;;;;22.02;50.67;97716.00;5053817;28;20208;-73
2021/08/08 11:32:28;;;;;;;1.43;1.33;;;;;;;22.27;50.54;97710.16;5049878;28;20199;-73
2021/08/08 11:35:02;;;;;;;1.27;1.13;;;;;;;22.35;52.63;97714.34;5053882;28;20207;-73